createdAt,value
2019-02-27T00:00:37.343Z,59.38
2019-02-27T00:01:49.697Z,56.66
2019-02-27T00:02:56.155Z,55.47
2019-02-27T00:04:02.520Z,55.31
2019-02-27T00:05:09.444Z,55.52
2019-02-27T00:06:15.888Z,58.50
2019-02-27T00:07:21.883Z,60.23
2019-02-27T00:08:28.873Z,58.41
2019-02-27T00:09:34.574Z,56.56
2019-02-27T00:10:40.324Z,57.02
2019-02-27T00:11:46.844Z,59.86
2019-02-27T00:12:52.651Z,60.31
2019-02-27T00:13:58.924Z,59.78
2019-02-27T00:15:05.950Z,57.29
2019-02-27T00:16:12.122Z,55.03
2019-02-27T00:17:18.845Z,54.51
2019-02-27T00:18:25.971Z,55.13
2019-02-27T00:19:32.163Z,57.86
2019-02-27T00:20:39.033Z,59.58
2019-02-27T00:21:45.273Z,58.72
2019-02-27T00:22:51.631Z,56.68
2019-02-27T00:23:58.136Z,56.08
2019-02-27T00:25:04.853Z,58.50
2019-02-27T00:26:10.775Z,59.90
2019-02-27T00:27:17.076Z,58.61
2019-02-27T00:28:23.987Z,56.22
2019-02-27T00:29:29.889Z,55.69
2019-02-27T00:30:38.102Z,58.62
2019-02-27T00:31:46.079Z,60.00
2019-02-27T00:32:51.907Z,60.30
2019-02-27T00:33:59.842Z,60.05
2019-02-27T00:35:07.258Z,58.13
2019-02-27T00:36:12.941Z,55.73
2019-02-27T00:37:19.516Z,55.32
2019-02-27T00:38:25.820Z,57.36
2019-02-27T00:39:31.824Z,59.77
2019-02-27T00:40:39.342Z,59.90
2019-02-27T00:41:46.037Z,59.53
2019-02-27T00:42:54.448Z,58.34
2019-02-27T00:44:02.694Z,56.99
2019-02-27T00:45:11.374Z,59.11
2019-02-27T00:46:17.624Z,59.61
2019-02-27T00:47:24.777Z,57.72
2019-02-27T00:48:31.745Z,56.18
2019-02-27T00:49:37.634Z,57.68
2019-02-27T00:50:44.385Z,58.92
2019-02-27T00:51:50.132Z,58.84
2019-02-27T00:52:56.484Z,56.51
2019-02-27T00:54:03.442Z,56.24
2019-02-27T00:55:10.305Z,58.92
2019-02-27T00:56:16.914Z,59.11
2019-02-27T00:57:23.135Z,57.23
2019-02-27T00:58:29.533Z,55.57
2019-02-27T00:59:37.294Z,57.15
2019-02-27T01:01:02.820Z,58.80
2019-02-27T01:02:09.717Z,57.32
2019-02-27T01:03:16.605Z,56.04
2019-02-27T01:04:22.354Z,57.75
2019-02-27T01:05:30.095Z,58.82
2019-02-27T01:06:36.986Z,56.97
2019-02-27T01:07:43.464Z,55.50
2019-02-27T01:08:49.675Z,57.25
2019-02-27T01:09:55.953Z,59.28
2019-02-27T01:11:03.089Z,58.71
2019-02-27T01:12:09.474Z,56.07
2019-02-27T01:13:16.164Z,56.22
2019-02-27T01:14:25.677Z,58.43
2019-02-27T01:15:31.938Z,59.22
2019-02-27T01:16:38.676Z,57.69
2019-02-27T01:17:45.149Z,55.93
2019-02-27T01:18:51.886Z,56.97
2019-02-27T01:19:58.124Z,58.80
2019-02-27T01:21:05.092Z,58.83
2019-02-27T01:22:11.383Z,56.47
2019-02-27T01:23:18.014Z,55.21
2019-02-27T01:24:23.694Z,57.17
2019-02-27T01:25:30.667Z,58.60
2019-02-27T01:26:37.584Z,57.22
2019-02-27T01:27:44.506Z,55.03
2019-02-27T01:28:51.574Z,55.03
2019-02-27T01:29:57.894Z,57.84
2019-02-27T01:31:04.178Z,58.35
2019-02-27T01:32:10.245Z,56.66
2019-02-27T01:33:15.964Z,54.87
2019-02-27T01:34:22.918Z,55.59
2019-02-27T01:35:28.585Z,58.39
2019-02-27T01:36:34.300Z,58.70
2019-02-27T01:37:39.930Z,56.73
2019-02-27T01:38:46.924Z,55.10
2019-02-27T01:39:52.650Z,56.05
2019-02-27T01:40:58.297Z,58.62
2019-02-27T01:42:05.493Z,58.80
2019-02-27T01:43:11.456Z,56.37
2019-02-27T01:44:18.284Z,55.72
2019-02-27T01:45:25.344Z,58.22
2019-02-27T01:46:31.314Z,59.11
2019-02-27T01:47:37.854Z,57.75
2019-02-27T01:48:44.287Z,55.86
2019-02-27T01:49:49.971Z,56.45
2019-02-27T01:50:55.872Z,59.10
2019-02-27T01:52:03.225Z,58.94
2019-02-27T01:53:11.304Z,56.63
2019-02-27T01:54:17.514Z,56.57
2019-02-27T01:55:24.486Z,59.36
2019-02-27T01:56:31.785Z,59.08
2019-02-27T01:57:38.494Z,57.00
2019-02-27T01:58:45.004Z,57.27
2019-02-27T01:59:51.384Z,60.09
2019-02-27T02:00:57.593Z,60.27
2019-02-27T02:02:04.222Z,57.87
2019-02-27T02:03:11.217Z,56.96
2019-02-27T02:04:20.055Z,58.98
2019-02-27T02:05:27.216Z,60.35
2019-02-27T02:06:33.076Z,58.56
2019-02-27T02:07:40.376Z,56.81
2019-02-27T02:08:48.261Z,57.29
2019-02-27T02:09:55.246Z,60.24
2019-02-27T02:11:02.035Z,59.96
2019-02-27T02:12:14.093Z,57.54
2019-02-27T02:13:25.402Z,57.19
2019-02-27T02:15:03.658Z,60.69
2019-02-27T02:16:25.164Z,62.16
2019-02-27T02:17:57.088Z,61.26
2019-02-27T02:19:22.645Z,60.31
2019-02-27T02:20:51.218Z,59.21
2019-02-27T02:22:06.133Z,56.22
2019-02-27T02:23:34.536Z,55.23
2019-02-27T02:24:58.783Z,55.33
2019-02-27T02:26:24.885Z,56.51
2019-02-27T02:28:12.094Z,60.40
2019-02-27T02:29:46.134Z,61.80
2019-02-27T02:31:21.084Z,59.74
2019-02-27T02:33:04.180Z,56.37
2019-02-27T02:34:39.845Z,55.10
2019-02-27T02:36:02.648Z,56.19
2019-02-27T02:37:41.568Z,60.08
2019-02-27T02:39:19.435Z,59.46
2019-02-27T02:40:44.382Z,56.29
2019-02-27T02:42:15.917Z,58.70
2019-02-27T02:44:07.409Z,60.29
2019-02-27T02:45:42.726Z,56.52
2019-02-27T02:47:01.633Z,57.80
2019-02-27T02:48:27.805Z,60.59
2019-02-27T02:50:17.448Z,58.56
2019-02-27T02:51:43.804Z,55.83
2019-02-27T02:53:03.468Z,59.86
2019-02-27T02:54:39.332Z,59.59
2019-02-27T02:56:04.702Z,56.03
2019-02-27T02:57:41.062Z,58.54
2019-02-27T02:59:09.877Z,60.13
2019-02-27T03:00:39.345Z,56.98
2019-02-27T03:01:56.617Z,56.62
2019-02-27T03:03:15.847Z,59.51
2019-02-27T03:04:55.817Z,58.97
2019-02-27T03:06:21.185Z,55.99
2019-02-27T03:08:01.910Z,58.62
2019-02-27T03:09:30.664Z,58.91
2019-02-27T03:11:19.078Z,55.82
2019-02-27T03:12:43.367Z,58.72
2019-02-27T03:14:17.271Z,59.01
2019-02-27T03:15:49.920Z,55.47
2019-02-27T03:17:25.433Z,58.05
2019-02-27T03:18:50.868Z,59.18
2019-02-27T03:20:19.510Z,55.91
2019-02-27T03:21:42.279Z,56.87
2019-02-27T03:23:07.549Z,59.02
2019-02-27T03:24:43.825Z,56.62
2019-02-27T03:26:16.416Z,55.20
2019-02-27T03:27:55.807Z,58.78
2019-02-27T03:29:25.407Z,56.72
2019-02-27T03:30:40.237Z,55.13
2019-02-27T03:32:05.480Z,58.49
2019-02-27T03:33:48.373Z,59.04
2019-02-27T03:35:47.291Z,55.20
2019-02-27T03:37:15.435Z,58.35
2019-02-27T03:38:25.764Z,58.11
2019-02-27T03:39:51.378Z,55.16
2019-02-27T03:41:39.018Z,55.27
2019-02-27T03:42:52.646Z,58.89
2019-02-27T03:44:28.577Z,57.43
2019-02-27T03:46:17.193Z,55.11
2019-02-27T03:47:33.747Z,58.91
2019-02-27T03:48:46.148Z,58.38
2019-02-27T03:50:21.786Z,55.86
2019-02-27T03:51:43.056Z,56.72
2019-02-27T03:53:16.123Z,59.46
2019-02-27T03:55:03.085Z,56.56
2019-02-27T03:56:30.066Z,56.11
2019-02-27T03:58:06.546Z,59.66
2019-02-27T03:59:42.073Z,57.07
2019-02-27T04:01:04.315Z,55.56
2019-02-27T04:02:44.161Z,59.11
2019-02-27T04:04:35.816Z,57.61
2019-02-27T04:06:11.935Z,56.24
2019-02-27T04:07:34.257Z,60.00
2019-02-27T04:08:45.031Z,59.67
2019-02-27T04:09:54.827Z,56.70
2019-02-27T04:10:58.427Z,56.59
2019-02-27T04:12:04.209Z,58.87
2019-02-27T04:13:10.138Z,58.97
2019-02-27T04:14:30.925Z,57.31
2019-02-27T04:15:38.068Z,55.90
2019-02-27T04:16:43.837Z,58.40
2019-02-27T04:17:51.775Z,58.77
2019-02-27T04:18:55.727Z,58.22
2019-02-27T04:20:01.770Z,56.11
2019-02-27T04:21:08.987Z,56.41
2019-02-27T04:22:14.710Z,58.51
2019-02-27T04:23:21.262Z,58.15
2019-02-27T04:24:28.347Z,55.68
2019-02-27T04:25:34.231Z,55.52
2019-02-27T04:26:41.871Z,58.17
2019-02-27T04:27:48.005Z,58.70
2019-02-27T04:28:53.966Z,56.47
2019-02-27T04:30:00.056Z,55.20
2019-02-27T04:31:06.166Z,57.46
2019-02-27T04:32:13.247Z,59.08
2019-02-27T04:33:22.905Z,58.80
2019-02-27T04:34:26.474Z,56.44
2019-02-27T04:35:34.206Z,55.55
2019-02-27T04:36:39.675Z,57.67
2019-02-27T04:37:45.416Z,58.88
2019-02-27T04:38:51.048Z,57.87
2019-02-27T04:39:56.696Z,55.93
2019-02-27T04:41:02.456Z,56.39
2019-02-27T04:42:08.402Z,58.67
2019-02-27T04:43:14.956Z,58.99
2019-02-27T04:44:21.555Z,56.93
2019-02-27T04:45:27.841Z,56.29
2019-02-27T04:46:34.777Z,58.69
2019-02-27T04:47:41.575Z,59.40
2019-02-27T04:48:48.674Z,57.57
2019-02-27T04:49:55.446Z,56.50
2019-02-27T04:51:02.534Z,58.79
2019-02-27T04:52:08.842Z,60.00
2019-02-27T04:53:15.749Z,57.96
2019-02-27T04:54:21.462Z,56.61
2019-02-27T04:55:28.776Z,57.91
2019-02-27T04:56:36.006Z,59.90
2019-02-27T04:57:43.102Z,59.11
2019-02-27T04:58:50.347Z,56.96
2019-02-27T04:59:57.174Z,56.83
2019-02-27T05:01:02.870Z,59.25
2019-02-27T05:02:08.611Z,59.88
2019-02-27T05:03:14.333Z,58.00
2019-02-27T05:04:21.728Z,56.43
2019-02-27T05:05:27.469Z,57.51
2019-02-27T05:06:33.199Z,59.79
2019-02-27T05:07:38.814Z,60.16
2019-02-27T05:08:44.519Z,57.95
2019-02-27T05:09:50.201Z,56.65
2019-02-27T05:10:55.864Z,58.42
2019-02-27T05:12:01.596Z,59.68
2019-02-27T05:13:08.069Z,58.55
2019-02-27T05:14:13.979Z,56.87
2019-02-27T05:15:20.764Z,57.22
2019-02-27T05:16:27.670Z,59.45
2019-02-27T05:17:33.388Z,59.23
2019-02-27T05:18:39.956Z,57.11
2019-02-27T05:19:46.339Z,56.54
2019-02-27T05:20:52.686Z,59.37
2019-02-27T05:22:01.141Z,59.61
2019-02-27T05:23:07.039Z,56.98
2019-02-27T05:24:13.796Z,56.18
2019-02-27T05:25:20.386Z,58.59
2019-02-27T05:26:27.339Z,59.47
2019-02-27T05:27:34.239Z,58.04
2019-02-27T05:28:40.319Z,56.45
2019-02-27T05:29:46.190Z,57.69
2019-02-27T05:30:52.547Z,59.50
2019-02-27T05:31:59.167Z,58.60
2019-02-27T05:33:06.416Z,56.65
2019-02-27T05:34:13.607Z,56.66
2019-02-27T05:35:23.582Z,59.50
2019-02-27T05:36:29.020Z,59.52
2019-02-27T05:37:36.133Z,56.76
2019-02-27T05:38:43.534Z,55.93
2019-02-27T05:39:51.229Z,58.47
2019-02-27T05:40:59.843Z,59.88
2019-02-27T05:42:06.382Z,57.52
2019-02-27T05:43:14.060Z,56.05
2019-02-27T05:44:22.130Z,56.77
2019-02-27T05:45:31.170Z,59.07
2019-02-27T05:46:38.404Z,58.97
2019-02-27T05:47:45.995Z,56.50
2019-02-27T05:48:53.350Z,56.07
2019-02-27T05:50:00.462Z,58.68
2019-02-27T05:51:07.693Z,59.08
2019-02-27T05:52:27.512Z,58.12
2019-02-27T05:53:35.441Z,55.92
2019-02-27T05:54:42.101Z,57.65
2019-02-27T05:55:48.400Z,58.76
2019-02-27T05:56:57.372Z,57.09
2019-02-27T05:58:04.172Z,55.61
2019-02-27T05:59:10.811Z,58.03
2019-02-27T06:00:21.742Z,59.20
2019-02-27T06:01:27.781Z,58.23
2019-02-27T06:02:34.772Z,56.23
2019-02-27T06:03:41.672Z,57.72
2019-02-27T06:04:48.081Z,59.12
2019-02-27T06:05:54.373Z,57.69
2019-02-27T06:07:03.440Z,55.81
2019-02-27T06:08:08.951Z,56.26
2019-02-27T06:09:14.511Z,58.81
2019-02-27T06:10:20.905Z,58.69
2019-02-27T06:11:29.548Z,56.06
2019-02-27T06:12:38.186Z,55.08
2019-02-27T06:13:45.029Z,57.15
2019-02-27T06:14:54.800Z,58.86
2019-02-27T06:16:02.903Z,57.61
2019-02-27T06:17:17.116Z,55.54
2019-02-27T06:18:23.807Z,55.94
2019-02-27T06:19:33.582Z,58.72
2019-02-27T06:20:38.964Z,57.99
2019-02-27T06:21:46.720Z,55.74
2019-02-27T06:22:53.232Z,55.39
2019-02-27T06:23:59.714Z,56.86
2019-02-27T06:25:09.395Z,58.88
2019-02-27T06:26:16.105Z,57.12
2019-02-27T06:27:23.812Z,55.78
2019-02-27T06:28:30.344Z,55.03
2019-02-27T06:29:36.692Z,57.52
2019-02-27T06:30:42.459Z,59.05
2019-02-27T06:31:48.794Z,57.69
2019-02-27T06:32:55.119Z,56.09
2019-02-27T06:34:06.577Z,55.94
2019-02-27T06:35:14.474Z,58.31
2019-02-27T06:36:20.175Z,59.50
2019-02-27T06:37:25.915Z,57.65
2019-02-27T06:38:31.645Z,56.82
2019-02-27T06:39:37.192Z,58.82
2019-02-27T06:40:42.980Z,60.67
2019-02-27T06:41:49.742Z,60.05
2019-02-27T06:42:56.938Z,57.84
2019-02-27T06:44:03.220Z,57.30
2019-02-27T06:45:16.021Z,59.38
2019-02-27T06:46:21.793Z,60.44
2019-02-27T06:47:28.154Z,58.04
2019-02-27T06:48:34.998Z,56.88
2019-02-27T06:49:41.201Z,56.98
2019-02-27T06:50:47.702Z,59.69
2019-02-27T06:51:53.559Z,61.13
2019-02-27T06:53:00.244Z,60.75
2019-02-27T06:54:07.512Z,60.34
2019-02-27T06:55:15.051Z,59.21
2019-02-27T06:56:21.003Z,56.55
2019-02-27T06:57:27.500Z,54.85
2019-02-27T06:58:33.521Z,54.50
2019-02-27T06:59:40.174Z,55.04
2019-02-27T07:00:46.543Z,56.18
2019-02-27T07:01:53.345Z,57.03
2019-02-27T07:03:00.181Z,57.87
2019-02-27T07:04:08.066Z,60.68
2019-02-27T07:05:14.168Z,62.51
2019-02-27T07:06:21.579Z,62.38
2019-02-27T07:07:28.783Z,61.07
2019-02-27T07:08:37.861Z,59.90
2019-02-27T07:09:43.251Z,59.27
2019-02-27T07:10:50.893Z,57.25
2019-02-27T07:11:57.211Z,56.07
2019-02-27T07:13:03.803Z,55.84
2019-02-27T07:14:09.792Z,56.11
2019-02-27T07:15:24.732Z,56.83
2019-02-27T07:16:32.593Z,57.34
2019-02-27T07:17:38.410Z,57.94
2019-02-27T07:18:45.182Z,58.88
2019-02-27T07:19:52.203Z,61.24
2019-02-27T07:20:58.430Z,64.45
2019-02-27T07:22:06.316Z,64.18
2019-02-27T07:23:13.333Z,62.56
2019-02-27T07:24:19.043Z,61.37
2019-02-27T07:25:26.244Z,59.97
2019-02-27T07:26:33.009Z,59.07
2019-02-27T07:27:44.313Z,57.54
2019-02-27T07:28:52.619Z,55.96
2019-02-27T07:30:04.967Z,56.18
2019-02-27T07:31:17.280Z,57.16
2019-02-27T07:32:31.319Z,58.24
2019-02-27T07:33:40.439Z,58.86
2019-02-27T07:34:49.739Z,60.30
2019-02-27T07:36:03.324Z,60.84
2019-02-27T07:37:12.960Z,61.34
2019-02-27T07:38:25.474Z,63.05
2019-02-27T07:39:34.734Z,66.29
2019-02-27T07:40:46.065Z,66.29
2019-02-27T07:41:55.127Z,64.38
2019-02-27T07:44:44.631Z,60.83
2019-02-27T07:45:51.711Z,59.13
2019-02-27T07:46:59.534Z,57.27
2019-02-27T07:48:05.164Z,56.10
2019-02-27T07:49:10.814Z,56.01
2019-02-27T07:50:18.234Z,56.18
2019-02-27T07:51:23.960Z,57.01
2019-02-27T07:52:32.623Z,57.54
2019-02-27T07:53:36.949Z,58.30
2019-02-27T07:54:43.175Z,59.26
2019-02-27T07:55:48.739Z,60.19
2019-02-27T07:56:54.816Z,60.77
2019-02-27T07:58:02.163Z,61.48
2019-02-27T07:59:08.233Z,62.41
2019-02-27T08:00:26.329Z,64.93
2019-02-27T08:01:32.653Z,67.90
2019-02-27T08:02:39.395Z,67.11
2019-02-27T08:03:45.852Z,65.66
2019-02-27T08:04:54.685Z,64.56
2019-02-27T08:06:02.415Z,62.69
2019-02-27T08:07:10.069Z,61.22
2019-02-27T08:08:15.123Z,60.47
2019-02-27T08:09:21.777Z,59.93
2019-02-27T08:10:27.950Z,57.81
2019-02-27T08:11:33.562Z,56.47
2019-02-27T08:12:39.542Z,56.56
2019-02-27T08:13:45.694Z,57.20
2019-02-27T08:14:52.324Z,58.20
2019-02-27T08:15:58.778Z,59.04
2019-02-27T08:17:17.043Z,60.37
2019-02-27T08:18:13.886Z,60.81
2019-02-27T08:19:21.664Z,62.00
2019-02-27T08:20:27.513Z,64.06
2019-02-27T08:21:33.662Z,66.42
2019-02-27T08:22:40.804Z,65.91
2019-02-27T08:23:46.741Z,64.46
2019-02-27T08:24:52.941Z,63.23
2019-02-27T08:25:59.044Z,62.16
2019-02-27T08:27:07.149Z,60.81
2019-02-27T08:28:13.462Z,60.17
2019-02-27T08:29:21.695Z,59.19
2019-02-27T08:30:29.262Z,57.16
2019-02-27T08:31:36.274Z,56.13
2019-02-27T08:32:42.022Z,56.31
2019-02-27T08:33:47.764Z,56.83
2019-02-27T08:34:53.495Z,57.89
2019-02-27T08:35:59.235Z,58.90
2019-02-27T08:37:04.995Z,59.96
2019-02-27T08:38:10.743Z,60.76
2019-02-27T08:39:16.493Z,61.33
2019-02-27T08:40:25.169Z,62.68
2019-02-27T08:41:31.467Z,64.73
2019-02-27T08:42:39.637Z,66.45
2019-02-27T08:43:44.251Z,65.42
2019-02-27T08:44:50.286Z,64.10
2019-02-27T08:45:56.047Z,62.55
2019-02-27T08:47:04.272Z,61.22
2019-02-27T08:48:11.536Z,60.73
2019-02-27T08:49:17.443Z,59.99
2019-02-27T08:50:25.136Z,59.96
2019-02-27T08:51:31.413Z,59.75
2019-02-27T08:52:37.333Z,59.63
2019-02-27T08:53:44.226Z,59.26
2019-02-27T08:54:49.845Z,58.46
2019-02-27T08:55:55.776Z,58.83
2019-02-27T08:57:04.164Z,59.66
2019-02-27T08:58:10.448Z,60.48
2019-02-27T08:59:16.596Z,61.81
2019-02-27T09:00:32.382Z,63.47
2019-02-27T09:01:38.204Z,66.19
2019-02-27T09:02:43.937Z,66.34
2019-02-27T09:03:50.599Z,65.97
2019-02-27T09:04:56.237Z,64.87
2019-02-27T09:06:01.903Z,63.84
2019-02-27T09:07:07.618Z,62.98
2019-02-27T09:08:13.265Z,62.80
2019-02-27T09:09:19.009Z,62.46
2019-02-27T09:10:28.087Z,62.07
2019-02-27T09:11:33.364Z,61.78
2019-02-27T09:12:40.281Z,60.88
2019-02-27T09:13:46.264Z,60.43
2019-02-27T09:14:55.879Z,59.93
2019-02-27T09:16:01.883Z,59.84
2019-02-27T09:17:08.215Z,59.69
2019-02-27T09:18:14.252Z,59.30
2019-02-27T09:19:20.818Z,58.73
2019-02-27T09:20:27.072Z,58.94
2019-02-27T09:21:33.434Z,59.80
2019-02-27T09:22:39.801Z,61.29
2019-02-27T09:23:46.326Z,61.99
2019-02-27T09:24:53.430Z,64.41
2019-02-27T09:26:02.515Z,65.92
2019-02-27T09:27:08.014Z,65.52
2019-02-27T09:28:14.003Z,64.70
2019-02-27T09:29:19.963Z,63.48
2019-02-27T09:30:30.098Z,62.43
2019-02-27T09:31:37.739Z,61.49
2019-02-27T09:32:46.061Z,61.21
2019-02-27T09:33:53.310Z,60.83
2019-02-27T09:35:00.278Z,60.42
2019-02-27T09:36:07.969Z,59.78
2019-02-27T09:37:13.866Z,59.46
2019-02-27T09:38:24.102Z,58.15
2019-02-27T09:39:31.204Z,57.97
2019-02-27T09:40:38.559Z,58.45
2019-02-27T09:41:46.891Z,59.37
2019-02-27T09:42:53.134Z,60.27
2019-02-27T09:44:01.336Z,61.88
2019-02-27T09:45:19.712Z,62.76
2019-02-27T09:46:25.981Z,64.92
2019-02-27T09:47:31.668Z,65.51
2019-02-27T09:48:37.655Z,63.94
2019-02-27T09:49:43.854Z,63.01
2019-02-27T09:51:12.603Z,61.27
2019-02-27T09:52:20.114Z,60.38
2019-02-27T09:53:25.955Z,59.65
2019-02-27T09:54:33.972Z,58.83
2019-02-27T09:55:39.794Z,57.80
2019-02-27T09:56:46.693Z,58.12
2019-02-27T09:57:52.925Z,58.77
2019-02-27T09:58:58.847Z,59.48
2019-02-27T10:00:06.642Z,60.25
2019-02-27T10:01:16.097Z,61.40
2019-02-27T10:02:22.016Z,62.49
2019-02-27T10:03:27.673Z,64.52
2019-02-27T10:04:33.375Z,65.34
2019-02-27T10:05:40.854Z,64.69
2019-02-27T10:06:46.739Z,63.29
2019-02-27T10:07:52.949Z,62.48
2019-02-27T10:08:59.742Z,61.43
2019-02-27T10:10:10.392Z,60.59
2019-02-27T10:11:19.536Z,59.23
2019-02-27T10:12:27.745Z,58.07
2019-02-27T10:13:35.546Z,58.13
2019-02-27T10:14:42.664Z,58.67
2019-02-27T10:15:48.854Z,59.59
2019-02-27T10:16:54.713Z,60.36
2019-02-27T10:18:02.029Z,61.70
2019-02-27T10:19:08.304Z,61.98
2019-02-27T10:20:14.145Z,62.98
2019-02-27T10:21:20.484Z,65.12
2019-02-27T10:22:28.833Z,66.54
2019-02-27T10:23:34.433Z,65.67
2019-02-27T10:24:40.406Z,63.26
2019-02-27T10:25:46.762Z,61.68
2019-02-27T10:26:53.534Z,60.88
2019-02-27T10:28:04.498Z,59.90
2019-02-27T10:29:10.915Z,58.58
2019-02-27T10:30:18.897Z,56.60
2019-02-27T10:31:25.909Z,56.57
2019-02-27T10:32:36.421Z,57.16
2019-02-27T10:33:42.844Z,57.78
2019-02-27T10:34:47.389Z,58.70
2019-02-27T10:35:57.547Z,59.83
2019-02-27T10:37:04.198Z,60.88
2019-02-27T10:38:10.118Z,61.78
2019-02-27T10:39:15.806Z,62.92
2019-02-27T10:40:27.484Z,64.55
2019-02-27T10:41:33.215Z,65.72
2019-02-27T10:42:38.849Z,65.05
2019-02-27T10:43:45.407Z,63.15
2019-02-27T10:44:51.054Z,60.87
2019-02-27T10:45:57.917Z,59.21
2019-02-27T10:47:04.056Z,57.85
2019-02-27T10:48:12.605Z,57.30
2019-02-27T10:49:21.547Z,57.71
2019-02-27T10:50:25.078Z,58.35
2019-02-27T10:51:31.146Z,59.04
2019-02-27T10:52:37.789Z,60.18
2019-02-27T10:53:43.856Z,60.89
2019-02-27T10:54:50.975Z,62.24
2019-02-27T10:55:57.488Z,63.65
2019-02-27T10:57:03.482Z,64.63
2019-02-27T10:58:13.287Z,63.43
2019-02-27T10:59:19.668Z,61.83
2019-02-27T11:00:33.747Z,60.87
2019-02-27T11:01:40.241Z,58.58
2019-02-27T11:02:47.914Z,57.40
2019-02-27T11:03:54.620Z,56.85
2019-02-27T11:05:00.483Z,57.30
2019-02-27T11:06:06.480Z,57.85
2019-02-27T11:07:15.504Z,57.67
2019-02-27T11:08:19.582Z,58.12
2019-02-27T11:09:27.466Z,58.91
2019-02-27T11:10:33.326Z,59.84
2019-02-27T11:11:42.367Z,60.20
2019-02-27T11:12:48.065Z,61.00
2019-02-27T11:13:55.415Z,61.60
2019-02-27T11:15:01.409Z,61.82
2019-02-27T11:16:08.324Z,62.71
2019-02-27T11:17:14.889Z,64.18
2019-02-27T11:18:21.606Z,64.53
2019-02-27T11:19:28.226Z,63.13
2019-02-27T11:20:34.707Z,61.93
2019-02-27T11:21:40.786Z,60.28
2019-02-27T11:22:46.983Z,59.37
2019-02-27T11:23:52.759Z,57.55
2019-02-27T11:25:00.141Z,56.11
2019-02-27T11:26:07.604Z,56.01
2019-02-27T11:27:13.782Z,56.34
2019-02-27T11:28:20.176Z,56.52
2019-02-27T11:29:25.858Z,57.34
2019-02-27T11:30:38.346Z,58.12
2019-02-27T11:31:45.575Z,58.92
2019-02-27T11:32:51.767Z,59.48
2019-02-27T11:33:57.417Z,60.20
2019-02-27T11:35:03.156Z,60.79
2019-02-27T11:36:08.909Z,61.47
2019-02-27T11:37:16.425Z,62.10
2019-02-27T11:38:24.688Z,62.85
2019-02-27T11:39:30.497Z,64.58
2019-02-27T11:40:41.543Z,65.04
2019-02-27T11:41:46.090Z,64.24
2019-02-27T11:42:52.260Z,62.78
2019-02-27T11:43:59.226Z,61.55
2019-02-27T11:45:08.854Z,59.39
2019-02-27T11:46:14.782Z,58.69
2019-02-27T11:47:21.259Z,57.27
2019-02-27T11:48:27.330Z,56.51
2019-02-27T11:49:36.294Z,57.28
2019-02-27T11:50:42.275Z,57.87
2019-02-27T11:51:50.589Z,58.41
2019-02-27T11:52:55.811Z,59.07
2019-02-27T11:54:01.778Z,59.66
2019-02-27T11:55:11.298Z,60.15
2019-02-27T11:56:20.323Z,60.44
2019-02-27T11:57:27.320Z,60.67
2019-02-27T11:58:39.121Z,61.08
2019-02-27T11:59:48.307Z,61.18
2019-02-27T12:00:54.014Z,61.22
2019-02-27T12:02:00.185Z,61.93
2019-02-27T12:03:08.552Z,62.19
2019-02-27T12:04:13.486Z,62.45
2019-02-27T12:05:19.215Z,63.44
2019-02-27T12:06:24.903Z,62.81
2019-02-27T12:07:30.594Z,61.74
2019-02-27T12:08:37.268Z,60.60
2019-02-27T12:09:42.899Z,58.77
2019-02-27T12:10:48.545Z,57.12
2019-02-27T12:11:54.286Z,55.32
2019-02-27T12:13:01.180Z,54.00
2019-02-27T12:14:09.092Z,53.73
2019-02-27T12:15:20.486Z,53.85
2019-02-27T12:16:26.449Z,54.37
2019-02-27T12:17:32.186Z,54.62
2019-02-27T12:18:38.876Z,55.34
2019-02-27T12:19:45.309Z,55.70
2019-02-27T12:20:54.009Z,56.47
2019-02-27T12:22:00.535Z,56.71
2019-02-27T12:23:07.450Z,56.72
2019-02-27T12:24:16.356Z,56.89
2019-02-27T12:25:26.839Z,57.31
2019-02-27T12:26:31.089Z,56.69
2019-02-27T12:27:48.767Z,57.25
2019-02-27T12:28:45.367Z,56.69
2019-02-27T12:29:52.184Z,56.55
2019-02-27T12:30:58.698Z,56.74
2019-02-27T12:32:06.114Z,56.76
2019-02-27T12:33:13.020Z,56.35
2019-02-27T12:34:18.695Z,56.55
2019-02-27T12:35:30.595Z,56.61
2019-02-27T12:36:37.248Z,56.85
2019-02-27T12:37:42.986Z,56.62
2019-02-27T12:38:48.728Z,56.57
2019-02-27T12:39:54.975Z,56.53
2019-02-27T12:41:00.718Z,56.88
2019-02-27T12:42:06.997Z,57.35
2019-02-27T12:43:17.268Z,57.20
2019-02-27T12:44:22.557Z,56.58
2019-02-27T12:45:29.912Z,56.48
2019-02-27T12:46:37.035Z,56.68
2019-02-27T12:47:44.347Z,56.77
2019-02-27T12:48:50.038Z,57.20
2019-02-27T12:49:56.950Z,56.04
2019-02-27T12:51:04.303Z,56.22
2019-02-27T12:52:12.094Z,56.14
2019-02-27T12:53:20.816Z,55.97
2019-02-27T12:54:27.515Z,55.97
2019-02-27T12:55:36.291Z,56.44
2019-02-27T12:56:43.328Z,56.45
2019-02-27T12:57:49.558Z,55.43
2019-02-27T12:58:58.702Z,55.64
2019-02-27T13:00:17.516Z,55.49
2019-02-27T13:01:23.624Z,55.71
2019-02-27T13:02:35.724Z,55.44
2019-02-27T13:03:36.699Z,55.58
2019-02-27T13:04:42.437Z,55.61
2019-02-27T13:05:48.179Z,55.36
2019-02-27T13:06:53.924Z,54.99
2019-02-27T13:07:59.557Z,54.76
2019-02-27T13:09:06.289Z,55.12
2019-02-27T13:10:21.694Z,54.70
2019-02-27T13:11:27.438Z,54.87
2019-02-27T13:12:33.177Z,54.88
2019-02-27T13:13:40.048Z,54.56
2019-02-27T13:14:46.089Z,55.02
2019-02-27T13:15:52.587Z,54.80
2019-02-27T13:16:58.287Z,54.33
2019-02-27T13:18:04.460Z,54.45
2019-02-27T13:19:10.289Z,54.77
2019-02-27T13:20:26.091Z,54.56
2019-02-27T13:21:32.129Z,54.80
2019-02-27T13:22:38.736Z,54.96
2019-02-27T13:23:44.738Z,54.78
2019-02-27T13:24:51.328Z,54.98
2019-02-27T13:26:00.284Z,55.13
2019-02-27T13:27:08.999Z,54.56
2019-02-27T13:28:15.668Z,54.41
2019-02-27T13:29:21.608Z,55.03
2019-02-27T13:30:28.830Z,55.13
2019-02-27T13:31:34.539Z,54.45
2019-02-27T13:32:40.676Z,54.63
2019-02-27T13:33:46.428Z,54.29
2019-02-27T13:34:52.153Z,54.37
2019-02-27T13:35:59.812Z,53.98
2019-02-27T13:37:06.870Z,53.46
2019-02-27T13:38:12.558Z,53.47
2019-02-27T13:39:18.297Z,53.42
2019-02-27T13:40:35.135Z,53.61
2019-02-27T13:41:38.909Z,54.16
2019-02-27T13:42:44.640Z,53.58
2019-02-27T13:43:50.383Z,53.30
2019-02-27T13:44:56.618Z,53.15
2019-02-27T13:46:02.944Z,52.73
2019-02-27T13:47:09.139Z,52.95
2019-02-27T13:48:15.698Z,53.10
2019-02-27T13:49:22.037Z,53.26
2019-02-27T13:50:27.796Z,53.41
2019-02-27T13:51:33.788Z,53.13
2019-02-27T13:52:44.868Z,53.07
2019-02-27T13:53:49.226Z,53.06
2019-02-27T13:54:55.384Z,53.42
2019-02-27T13:56:01.621Z,52.82
2019-02-27T13:57:07.571Z,52.54
2019-02-27T13:58:13.300Z,52.78
2019-02-27T13:59:20.608Z,52.47
2019-02-27T14:00:35.238Z,52.58
2019-02-27T14:01:42.804Z,52.97
2019-02-27T14:02:48.664Z,52.87
2019-02-27T14:03:54.400Z,52.63
2019-02-27T14:05:00.768Z,52.65
2019-02-27T14:06:09.320Z,53.08
2019-02-27T14:07:15.114Z,52.57
2019-02-27T14:08:20.751Z,52.76
2019-02-27T14:09:26.492Z,53.01
2019-02-27T14:10:33.669Z,52.76
2019-02-27T14:11:39.381Z,52.43
2019-02-27T14:12:45.145Z,52.50
2019-02-27T14:13:51.686Z,52.65
2019-02-27T14:14:57.433Z,52.79
2019-02-27T14:16:04.123Z,52.53
2019-02-27T14:17:11.481Z,52.74
2019-02-27T14:18:17.229Z,52.16
2019-02-27T14:19:24.792Z,51.85
2019-02-27T14:20:31.459Z,52.16
2019-02-27T14:21:37.431Z,52.23
2019-02-27T14:22:45.150Z,52.16
2019-02-27T14:23:52.889Z,52.37
2019-02-27T14:24:58.959Z,52.54
2019-02-27T14:26:06.736Z,52.53
2019-02-27T14:27:14.587Z,52.56
2019-02-27T14:28:21.021Z,51.85
2019-02-27T14:29:29.880Z,52.38
2019-02-27T14:30:47.919Z,52.67
2019-02-27T14:31:53.952Z,51.79
2019-02-27T14:33:00.239Z,51.91
2019-02-27T14:34:06.056Z,51.51
2019-02-27T14:35:11.819Z,51.49
2019-02-27T14:36:17.549Z,52.00
2019-02-27T14:37:23.281Z,51.88
2019-02-27T14:38:29.039Z,51.75
2019-02-27T14:39:34.752Z,52.01
2019-02-27T14:40:41.212Z,51.89
2019-02-27T14:41:48.787Z,52.13
2019-02-27T14:42:55.132Z,51.85
2019-02-27T14:44:01.004Z,51.90
2019-02-27T14:45:11.315Z,51.82
2019-02-27T14:46:17.869Z,51.78
2019-02-27T14:47:24.169Z,52.07
2019-02-27T14:48:31.349Z,52.28
2019-02-27T14:49:37.629Z,52.48
2019-02-27T14:50:43.322Z,52.18
2019-02-27T14:51:49.297Z,52.22
2019-02-27T14:52:55.682Z,52.06
2019-02-27T14:54:01.465Z,52.21
2019-02-27T14:55:10.590Z,52.33
2019-02-27T14:56:16.335Z,52.12